sensor_id;sensor_type;location;lat;lon;timestamp;pressure;altitude;pressure_sealevel;temperature;humidity
62462;BME280;48511;38.664;-9.202;2022-10-13T00:01:47;101241.41;;;16.72;84.37
62462;BME280;48511;38.664;-9.202;2022-10-13T00:03:49;101230.97;;;16.71;84.75
62462;BME280;48511;38.664;-9.202;2022-10-13T00:05:56;101230.97;;;16.71;85.39
62462;BME280;48511;38.664;-9.202;2022-10-13T00:07:57;101224.00;;;16.70;85.57
62462;BME280;48511;38.664;-9.202;2022-10-13T00:09:58;101230.88;;;16.72;85.68
62462;BME280;48511;38.664;-9.202;2022-10-13T00:11:58;101229.28;;;16.70;85.98
62462;BME280;48511;38.664;-9.202;2022-10-13T00:14:01;101232.31;;;16.78;85.95
62462;BME280;48511;38.664;-9.202;2022-10-13T00:16:03;101235.88;;;16.77;85.89
62462;BME280;48511;38.664;-9.202;2022-10-13T00:18:04;101230.53;;;16.79;85.73
62462;BME280;48511;38.664;-9.202;2022-10-13T00:20:05;101228.81;;;16.78;85.80
62462;BME280;48511;38.664;-9.202;2022-10-13T00:22:06;101218.38;;;16.76;85.90
62462;BME280;48511;38.664;-9.202;2022-10-13T00:24:09;101215.19;;;16.71;86.17
62462;BME280;48511;38.664;-9.202;2022-10-13T00:26:12;101220.34;;;16.72;86.02
62462;BME280;48511;38.664;-9.202;2022-10-13T00:28:16;101217.91;;;16.69;86.26
62462;BME280;48511;38.664;-9.202;2022-10-13T00:30:16;101230.41;;;16.66;85.96
62462;BME280;48511;38.664;-9.202;2022-10-13T00:32:18;101237.81;;;16.59;86.16
62462;BME280;48511;38.664;-9.202;2022-10-13T00:34:19;101240.53;;;16.58;86.76
62462;BME280;48511;38.664;-9.202;2022-10-13T00:36:21;101234.84;;;16.49;87.17
62462;BME280;48511;38.664;-9.202;2022-10-13T00:38:22;101224.69;;;16.43;87.38
62462;BME280;48511;38.664;-9.202;2022-10-13T00:40:22;101218.78;;;16.39;87.63
62462;BME280;48511;38.664;-9.202;2022-10-13T00:42:23;101222.22;;;16.40;87.68
62462;BME280;48511;38.664;-9.202;2022-10-13T00:47:01;101217.84;;;16.24;87.48
62462;BME280;48511;38.664;-9.202;2022-10-13T00:49:11;101214.63;;;16.19;87.43
62462;BME280;48511;38.664;-9.202;2022-10-13T00:51:15;101221.94;;;16.14;87.92
62462;BME280;48511;38.664;-9.202;2022-10-13T00:53:20;101217.50;;;16.15;88.52
62462;BME280;48511;38.664;-9.202;2022-10-13T00:55:25;101220.22;;;16.29;88.17
62462;BME280;48511;38.664;-9.202;2022-10-13T00:57:29;101221.06;;;16.30;88.34
62462;BME280;48511;38.664;-9.202;2022-10-13T00:59:29;101223.34;;;16.36;88.13
62462;BME280;48511;38.664;-9.202;2022-10-13T01:01:30;101218.09;;;16.36;88.03
62462;BME280;48511;38.664;-9.202;2022-10-13T01:03:31;101211.53;;;16.43;87.29
62462;BME280;48511;38.664;-9.202;2022-10-13T01:05:33;101225.63;;;16.42;87.39
62462;BME280;48511;38.664;-9.202;2022-10-13T01:07:35;101230.50;;;16.48;87.24
62462;BME280;48511;38.664;-9.202;2022-10-13T01:09:35;101224.63;;;16.45;87.24
62462;BME280;48511;38.664;-9.202;2022-10-13T01:14:29;101231.06;;;16.39;87.38
62462;BME280;48511;38.664;-9.202;2022-10-13T01:18:47;101220.38;;;16.26;87.89
62462;BME280;48511;38.664;-9.202;2022-10-13T01:23:09;101228.72;;;16.18;88.65
62462;BME280;48511;38.664;-9.202;2022-10-13T01:25:51;101221.06;;;16.14;88.62
62462;BME280;48511;38.664;-9.202;2022-10-13T01:30:17;101226.09;;;16.02;88.82
62462;BME280;48511;38.664;-9.202;2022-10-13T01:32:30;101224.66;;;15.97;89.50
62462;BME280;48511;38.664;-9.202;2022-10-13T01:35:04;101219.56;;;15.94;89.87
62462;BME280;48511;38.664;-9.202;2022-10-13T01:37:21;101207.19;;;15.96;90.28
62462;BME280;48511;38.664;-9.202;2022-10-13T01:41:43;101214.63;;;16.03;90.93
62462;BME280;48511;38.664;-9.202;2022-10-13T01:43:51;101213.63;;;16.06;91.09
62462;BME280;48511;38.664;-9.202;2022-10-13T01:46:23;101207.88;;;16.15;90.88
62462;BME280;48511;38.664;-9.202;2022-10-13T01:48:27;101209.63;;;16.15;90.87
62462;BME280;48511;38.664;-9.202;2022-10-13T01:50:28;101206.16;;;16.14;90.78
62462;BME280;48511;38.664;-9.202;2022-10-13T01:52:34;101204.38;;;16.15;90.91
62462;BME280;48511;38.664;-9.202;2022-10-13T01:54:36;101199.19;;;16.13;90.82
62462;BME280;48511;38.664;-9.202;2022-10-13T01:56:37;101194.72;;;16.15;90.81
62462;BME280;48511;38.664;-9.202;2022-10-13T01:58:38;101204.28;;;16.16;91.04
62462;BME280;48511;38.664;-9.202;2022-10-13T02:00:43;101200.91;;;16.14;90.84
62462;BME280;48511;38.664;-9.202;2022-10-13T02:07:18;101204.72;;;16.08;90.74
62462;BME280;48511;38.664;-9.202;2022-10-13T02:09:30;101204.22;;;16.02;90.92
62462;BME280;48511;38.664;-9.202;2022-10-13T02:11:33;101200.66;;;16.03;90.84
62462;BME280;48511;38.664;-9.202;2022-10-13T02:13:35;101199.13;;;15.99;91.34
62462;BME280;48511;38.664;-9.202;2022-10-13T02:15:47;101197.69;;;15.93;91.64
62462;BME280;48511;38.664;-9.202;2022-10-13T02:17:50;101191.84;;;15.88;91.84
62462;BME280;48511;38.664;-9.202;2022-10-13T02:19:53;101191.94;;;15.86;91.98
62462;BME280;48511;38.664;-9.202;2022-10-13T02:21:55;101198.19;;;15.84;92.55
62462;BME280;48511;38.664;-9.202;2022-10-13T02:23:57;101197.44;;;15.82;92.51
62462;BME280;48511;38.664;-9.202;2022-10-13T02:25:58;101188.72;;;15.81;92.64
62462;BME280;48511;38.664;-9.202;2022-10-13T02:28:00;101200.31;;;15.77;92.35
62462;BME280;48511;38.664;-9.202;2022-10-13T02:30:04;101201.22;;;15.76;92.39
62462;BME280;48511;38.664;-9.202;2022-10-13T02:32:05;101188.00;;;15.78;92.83
62462;BME280;48511;38.664;-9.202;2022-10-13T02:34:06;101179.97;;;15.81;92.76
62462;BME280;48511;38.664;-9.202;2022-10-13T02:36:07;101198.34;;;15.81;93.01
62462;BME280;48511;38.664;-9.202;2022-10-13T02:38:08;101199.28;;;15.80;92.92
62462;BME280;48511;38.664;-9.202;2022-10-13T02:40:09;101194.66;;;15.85;92.97
62462;BME280;48511;38.664;-9.202;2022-10-13T02:42:10;101194.56;;;15.86;92.72
62462;BME280;48511;38.664;-9.202;2022-10-13T02:44:11;101193.63;;;15.87;92.72
62462;BME280;48511;38.664;-9.202;2022-10-13T02:46:15;101192.03;;;15.85;92.52
62462;BME280;48511;38.664;-9.202;2022-10-13T02:48:16;101202.63;;;15.83;92.40
62462;BME280;48511;38.664;-9.202;2022-10-13T02:50:16;101200.22;;;15.79;92.73
62462;BME280;48511;38.664;-9.202;2022-10-13T02:52:17;101204.81;;;15.91;92.04
62462;BME280;48511;38.664;-9.202;2022-10-13T02:54:18;101207.31;;;15.77;92.56
62462;BME280;48511;38.664;-9.202;2022-10-13T02:56:19;101193.66;;;15.70;92.80
62462;BME280;48511;38.664;-9.202;2022-10-13T02:58:20;101188.94;;;15.61;93.16
62462;BME280;48511;38.664;-9.202;2022-10-13T03:00:21;101191.75;;;15.57;93.33
62462;BME280;48511;38.664;-9.202;2022-10-13T03:02:22;101202.25;;;15.57;93.52
62462;BME280;48511;38.664;-9.202;2022-10-13T03:04:23;101199.03;;;15.52;93.32
62462;BME280;48511;38.664;-9.202;2022-10-13T03:06:25;101193.91;;;15.49;93.39
62462;BME280;48511;38.664;-9.202;2022-10-13T03:08:26;101195.63;;;15.50;93.23
62462;BME280;48511;38.664;-9.202;2022-10-13T03:10:26;101196.53;;;15.49;93.31
62462;BME280;48511;38.664;-9.202;2022-10-13T03:12:28;101195.72;;;15.49;93.38
62462;BME280;48511;38.664;-9.202;2022-10-13T03:14:29;101200.09;;;15.48;93.60
62462;BME280;48511;38.664;-9.202;2022-10-13T03:16:30;101192.22;;;15.48;93.62
62462;BME280;48511;38.664;-9.202;2022-10-13T03:18:30;101190.44;;;15.49;93.95
62462;BME280;48511;38.664;-9.202;2022-10-13T03:20:31;101192.22;;;15.48;94.02
62462;BME280;48511;38.664;-9.202;2022-10-13T03:22:32;101201.06;;;15.47;94.14
62462;BME280;48511;38.664;-9.202;2022-10-13T03:24:32;101193.31;;;15.44;94.28
62462;BME280;48511;38.664;-9.202;2022-10-13T03:26:33;101194.41;;;15.40;94.39
62462;BME280;48511;38.664;-9.202;2022-10-13T03:28:34;101196.34;;;15.36;94.17
62462;BME280;48511;38.664;-9.202;2022-10-13T03:30:35;101193.03;;;15.33;94.22
62462;BME280;48511;38.664;-9.202;2022-10-13T03:32:35;101190.41;;;15.33;94.24
62462;BME280;48511;38.664;-9.202;2022-10-13T03:34:36;101190.69;;;15.28;94.06
62462;BME280;48511;38.664;-9.202;2022-10-13T03:36:37;101199.63;;;15.24;94.30
62462;BME280;48511;38.664;-9.202;2022-10-13T03:38:38;101185.88;;;15.19;94.22
62462;BME280;48511;38.664;-9.202;2022-10-13T03:40:40;101201.13;;;15.12;94.81
62462;BME280;48511;38.664;-9.202;2022-10-13T03:42:41;101197.75;;;15.10;94.88
62462;BME280;48511;38.664;-9.202;2022-10-13T03:44:41;101205.00;;;15.05;94.89
62462;BME280;48511;38.664;-9.202;2022-10-13T03:46:42;101208.56;;;15.04;95.06
62462;BME280;48511;38.664;-9.202;2022-10-13T03:48:45;101213.31;;;15.13;94.64
62462;BME280;48511;38.664;-9.202;2022-10-13T03:50:46;101218.19;;;15.03;95.21
62462;BME280;48511;38.664;-9.202;2022-10-13T03:52:46;101214.25;;;14.95;95.47
62462;BME280;48511;38.664;-9.202;2022-10-13T03:54:48;101229.47;;;14.88;96.37
62462;BME280;48511;38.664;-9.202;2022-10-13T03:56:49;101226.03;;;14.87;96.45
62462;BME280;48511;38.664;-9.202;2022-10-13T03:58:50;101233.94;;;15.03;96.45
62462;BME280;48511;38.664;-9.202;2022-10-13T04:00:54;101229.56;;;15.04;97.45
62462;BME280;48511;38.664;-9.202;2022-10-13T04:02:55;101219.66;;;15.09;97.66
62462;BME280;48511;38.664;-9.202;2022-10-13T04:04:55;101220.41;;;15.11;97.78
62462;BME280;48511;38.664;-9.202;2022-10-13T04:06:56;101220.28;;;15.14;97.70
62462;BME280;48511;38.664;-9.202;2022-10-13T04:08:57;101225.81;;;15.25;97.66
62462;BME280;48511;38.664;-9.202;2022-10-13T04:11:03;101225.72;;;15.27;97.85
62462;BME280;48511;38.664;-9.202;2022-10-13T04:13:05;101223.84;;;15.29;97.49
62462;BME280;48511;38.664;-9.202;2022-10-13T04:15:06;101231.50;;;15.34;97.58
62462;BME280;48511;38.664;-9.202;2022-10-13T04:17:07;101234.13;;;15.34;97.66
62462;BME280;48511;38.664;-9.202;2022-10-13T04:19:10;101235.97;;;15.32;97.68
62462;BME280;48511;38.664;-9.202;2022-10-13T04:21:13;101234.44;;;15.28;97.71
62462;BME280;48511;38.664;-9.202;2022-10-13T04:23:14;101239.25;;;15.19;97.68
62462;BME280;48511;38.664;-9.202;2022-10-13T04:25:21;101237.72;;;15.15;98.18
62462;BME280;48511;38.664;-9.202;2022-10-13T04:27:22;101241.28;;;15.14;98.30
62462;BME280;48511;38.664;-9.202;2022-10-13T04:29:23;101236.94;;;15.13;98.40
62462;BME280;48511;38.664;-9.202;2022-10-13T04:31:27;101235.25;;;15.12;98.30
62462;BME280;48511;38.664;-9.202;2022-10-13T04:33:28;101236.88;;;15.15;98.58
62462;BME280;48511;38.664;-9.202;2022-10-13T04:35:30;101226.44;;;15.13;98.79
62462;BME280;48511;38.664;-9.202;2022-10-13T04:37:31;101238.41;;;15.19;98.94
62462;BME280;48511;38.664;-9.202;2022-10-13T04:39:32;101234.75;;;15.21;98.83
62462;BME280;48511;38.664;-9.202;2022-10-13T04:41:32;101242.31;;;15.28;99.01
62462;BME280;48511;38.664;-9.202;2022-10-13T04:43:33;101240.47;;;15.30;99.18
62462;BME280;48511;38.664;-9.202;2022-10-13T04:45:34;101250.97;;;15.30;99.07
62462;BME280;48511;38.664;-9.202;2022-10-13T04:47:35;101248.28;;;15.31;98.70
62462;BME280;48511;38.664;-9.202;2022-10-13T04:49:37;101244.19;;;15.25;98.91
62462;BME280;48511;38.664;-9.202;2022-10-13T04:51:37;101252.91;;;15.26;99.00
62462;BME280;48511;38.664;-9.202;2022-10-13T04:53:39;101251.47;;;15.20;98.91
62462;BME280;48511;38.664;-9.202;2022-10-13T04:55:43;101252.38;;;15.19;98.71
62462;BME280;48511;38.664;-9.202;2022-10-13T04:57:43;101250.06;;;15.13;98.83
62462;BME280;48511;38.664;-9.202;2022-10-13T04:59:44;101261.50;;;15.12;99.02
62462;BME280;48511;38.664;-9.202;2022-10-13T05:01:45;101263.97;;;15.15;99.15
62462;BME280;48511;38.664;-9.202;2022-10-13T05:03:50;101262.09;;;15.17;99.27
62462;BME280;48511;38.664;-9.202;2022-10-13T05:05:52;101256.72;;;15.20;99.31
62462;BME280;48511;38.664;-9.202;2022-10-13T05:07:52;101260.97;;;15.23;99.72
62462;BME280;48511;38.664;-9.202;2022-10-13T05:09:53;101252.31;;;15.21;99.68
62462;BME280;48511;38.664;-9.202;2022-10-13T05:11:54;101262.72;;;15.22;99.62
62462;BME280;48511;38.664;-9.202;2022-10-13T05:13:55;101267.66;;;15.29;99.86
62462;BME280;48511;38.664;-9.202;2022-10-13T05:15:56;101261.47;;;15.30;99.54
62462;BME280;48511;38.664;-9.202;2022-10-13T05:17:58;101272.91;;;15.29;99.30
62462;BME280;48511;38.664;-9.202;2022-10-13T05:19:59;101275.72;;;15.25;99.16
62462;BME280;48511;38.664;-9.202;2022-10-13T05:22:00;101269.59;;;15.25;99.09
62462;BME280;48511;38.664;-9.202;2022-10-13T05:24:01;101272.38;;;15.22;99.25
62462;BME280;48511;38.664;-9.202;2022-10-13T05:26:03;101269.84;;;15.20;99.08
62462;BME280;48511;38.664;-9.202;2022-10-13T05:28:06;101267.28;;;15.19;99.32
62462;BME280;48511;38.664;-9.202;2022-10-13T05:30:07;101261.28;;;15.17;99.20
62462;BME280;48511;38.664;-9.202;2022-10-13T05:32:08;101272.47;;;15.20;99.15
62462;BME280;48511;38.664;-9.202;2022-10-13T05:34:09;101268.97;;;15.20;99.37
62462;BME280;48511;38.664;-9.202;2022-10-13T05:36:19;101256.78;;;15.19;99.39
62462;BME280;48511;38.664;-9.202;2022-10-13T05:38:20;101263.03;;;15.16;99.36
62462;BME280;48511;38.664;-9.202;2022-10-13T05:40:23;101274.31;;;15.18;99.36
62462;BME280;48511;38.664;-9.202;2022-10-13T05:42:29;101277.38;;;15.26;98.20
62462;BME280;48511;38.664;-9.202;2022-10-13T05:44:29;101275.41;;;15.14;98.56
62462;BME280;48511;38.664;-9.202;2022-10-13T05:46:30;101281.88;;;15.07;98.83
62462;BME280;48511;38.664;-9.202;2022-10-13T05:48:31;101275.28;;;15.00;99.16
62462;BME280;48511;38.664;-9.202;2022-10-13T05:50:33;101273.69;;;14.96;99.39
62462;BME280;48511;38.664;-9.202;2022-10-13T05:52:33;101275.56;;;14.93;99.52
62462;BME280;48511;38.664;-9.202;2022-10-13T05:56:45;101268.09;;;14.86;100.00
62462;BME280;48511;38.664;-9.202;2022-10-13T05:58:56;101275.19;;;14.84;99.98
62462;BME280;48511;38.664;-9.202;2022-10-13T06:00:59;101278.97;;;14.78;99.87
62462;BME280;48511;38.664;-9.202;2022-10-13T06:03:12;101285.44;;;14.71;99.42
62462;BME280;48511;38.664;-9.202;2022-10-13T06:05:18;101290.88;;;14.66;99.92
62462;BME280;48511;38.664;-9.202;2022-10-13T06:07:26;101295.44;;;14.63;99.91
62462;BME280;48511;38.664;-9.202;2022-10-13T06:09:31;101292.81;;;14.63;99.97
62462;BME280;48511;38.664;-9.202;2022-10-13T06:11:34;101285.84;;;14.62;100.00
62462;BME280;48511;38.664;-9.202;2022-10-13T06:13:34;101289.41;;;14.60;100.00
62462;BME280;48511;38.664;-9.202;2022-10-13T06:15:35;101294.66;;;14.60;100.00
62462;BME280;48511;38.664;-9.202;2022-10-13T06:17:37;101291.22;;;14.58;100.00
62462;BME280;48511;38.664;-9.202;2022-10-13T06:19:38;101295.66;;;14.58;100.00
62462;BME280;48511;38.664;-9.202;2022-10-13T06:21:42;101301.88;;;14.55;100.00
62462;BME280;48511;38.664;-9.202;2022-10-13T06:23:43;101303.59;;;14.56;100.00
62462;BME280;48511;38.664;-9.202;2022-10-13T06:25:50;101299.44;;;14.52;100.00
62462;BME280;48511;38.664;-9.202;2022-10-13T06:27:51;101296.09;;;14.49;100.00
62462;BME280;48511;38.664;-9.202;2022-10-13T06:29:52;101300.47;;;14.48;100.00
62462;BME280;48511;38.664;-9.202;2022-10-13T06:31:53;101296.38;;;14.42;100.00
62462;BME280;48511;38.664;-9.202;2022-10-13T06:33:54;101292.25;;;14.37;100.00
62462;BME280;48511;38.664;-9.202;2022-10-13T06:35:55;101292.44;;;14.34;100.00
62462;BME280;48511;38.664;-9.202;2022-10-13T06:37:56;101302.28;;;14.28;100.00
62462;BME280;48511;38.664;-9.202;2022-10-13T06:39:57;101300.50;;;14.29;100.00
62462;BME280;48511;38.664;-9.202;2022-10-13T06:41:57;101309.97;;;14.32;100.00
62462;BME280;48511;38.664;-9.202;2022-10-13T06:44:03;101306.44;;;14.52;100.00
62462;BME280;48511;38.664;-9.202;2022-10-13T06:46:04;101313.50;;;14.50;100.00
62462;BME280;48511;38.664;-9.202;2022-10-13T06:48:04;101308.72;;;14.40;100.00
62462;BME280;48511;38.664;-9.202;2022-10-13T06:50:05;101317.38;;;14.42;100.00
62462;BME280;48511;38.664;-9.202;2022-10-13T06:52:06;101316.66;;;14.39;100.00
62462;BME280;48511;38.664;-9.202;2022-10-13T06:54:07;101319.34;;;14.37;100.00
62462;BME280;48511;38.664;-9.202;2022-10-13T06:56:09;101321.63;;;14.45;100.00
62462;BME280;48511;38.664;-9.202;2022-10-13T06:58:10;101324.69;;;14.53;100.00
62462;BME280;48511;38.664;-9.202;2022-10-13T07:00:11;101326.28;;;14.57;100.00
62462;BME280;48511;38.664;-9.202;2022-10-13T07:02:12;101325.88;;;14.67;100.00
62462;BME280;48511;38.664;-9.202;2022-10-13T07:04:14;101332.91;;;14.84;100.00
62462;BME280;48511;38.664;-9.202;2022-10-13T07:06:16;101326.91;;;14.99;100.00
62462;BME280;48511;38.664;-9.202;2022-10-13T07:08:17;101337.31;;;15.18;100.00
62462;BME280;48511;38.664;-9.202;2022-10-13T07:10:19;101343.19;;;15.41;100.00
62462;BME280;48511;38.664;-9.202;2022-10-13T07:12:19;101345.16;;;15.53;100.00
62462;BME280;48511;38.664;-9.202;2022-10-13T07:14:21;101346.06;;;15.70;100.00
62462;BME280;48511;38.664;-9.202;2022-10-13T07:16:22;101352.25;;;15.86;100.00
62462;BME280;48511;38.664;-9.202;2022-10-13T07:18:22;101350.50;;;16.03;100.00
62462;BME280;48511;38.664;-9.202;2022-10-13T07:20:23;101361.28;;;16.14;100.00
62462;BME280;48511;38.664;-9.202;2022-10-13T07:22:26;101358.06;;;16.25;99.18
62462;BME280;48511;38.664;-9.202;2022-10-13T07:24:27;101357.31;;;16.39;97.97
62462;BME280;48511;38.664;-9.202;2022-10-13T07:26:28;101367.50;;;16.45;97.02
62462;BME280;48511;38.664;-9.202;2022-10-13T07:28:29;101367.06;;;16.53;96.71
62462;BME280;48511;38.664;-9.202;2022-10-13T07:30:30;101371.38;;;16.70;95.78
62462;BME280;48511;38.664;-9.202;2022-10-13T07:32:31;101386.16;;;16.88;93.19
62462;BME280;48511;38.664;-9.202;2022-10-13T07:34:31;101379.97;;;16.89;91.47
62462;BME280;48511;38.664;-9.202;2022-10-13T07:36:32;101380.97;;;16.87;90.97
62462;BME280;48511;38.664;-9.202;2022-10-13T07:38:35;101383.69;;;16.85;90.96
62462;BME280;48511;38.664;-9.202;2022-10-13T07:40:37;101393.47;;;16.83;91.59
62462;BME280;48511;38.664;-9.202;2022-10-13T07:42:37;101389.22;;;16.81;91.46
62462;BME280;48511;38.664;-9.202;2022-10-13T07:44:41;101397.53;;;16.89;91.51
62462;BME280;48511;38.664;-9.202;2022-10-13T07:46:41;101396.00;;;16.85;91.89
62462;BME280;48511;38.664;-9.202;2022-10-13T07:48:42;101390.94;;;16.82;92.24
62462;BME280;48511;38.664;-9.202;2022-10-13T07:50:46;101390.94;;;16.82;92.67
62462;BME280;48511;38.664;-9.202;2022-10-13T07:52:46;101392.34;;;16.87;92.49
62462;BME280;48511;38.664;-9.202;2022-10-13T07:54:47;101389.72;;;16.87;92.59
62462;BME280;48511;38.664;-9.202;2022-10-13T07:56:52;101392.34;;;16.87;92.94
62462;BME280;48511;38.664;-9.202;2022-10-13T07:58:53;101387.34;;;16.99;92.37
62462;BME280;48511;38.664;-9.202;2022-10-13T08:00:58;101393.19;;;17.04;91.93
62462;BME280;48511;38.664;-9.202;2022-10-13T08:02:59;101394.63;;;17.10;92.05
62462;BME280;48511;38.664;-9.202;2022-10-13T08:05:02;101396.81;;;17.17;91.72
62462;BME280;48511;38.664;-9.202;2022-10-13T08:07:04;101404.00;;;17.30;91.14
62462;BME280;48511;38.664;-9.202;2022-10-13T08:09:05;101406.97;;;17.40;90.76
62462;BME280;48511;38.664;-9.202;2022-10-13T08:11:11;101412.38;;;17.52;90.50
62462;BME280;48511;38.664;-9.202;2022-10-13T08:13:12;101408.25;;;17.63;89.94
62462;BME280;48511;38.664;-9.202;2022-10-13T08:15:13;101411.44;;;17.68;89.46
62462;BME280;48511;38.664;-9.202;2022-10-13T08:17:14;101411.25;;;17.71;89.04
62462;BME280;48511;38.664;-9.202;2022-10-13T08:19:15;101417.75;;;17.80;88.88
62462;BME280;48511;38.664;-9.202;2022-10-13T08:21:18;101417.50;;;17.84;88.84
62462;BME280;48511;38.664;-9.202;2022-10-13T08:23:19;101421.19;;;17.96;88.63
62462;BME280;48511;38.664;-9.202;2022-10-13T08:25:23;101412.81;;;18.04;86.98
62462;BME280;48511;38.664;-9.202;2022-10-13T08:27:24;101412.06;;;18.16;86.14
62462;BME280;48511;38.664;-9.202;2022-10-13T08:29:25;101421.38;;;18.22;85.56
62462;BME280;48511;38.664;-9.202;2022-10-13T08:31:26;101414.69;;;18.31;84.11
62462;BME280;48511;38.664;-9.202;2022-10-13T08:33:32;101419.38;;;18.40;84.03
62462;BME280;48511;38.664;-9.202;2022-10-13T08:35:32;101423.13;;;18.50;83.51
62462;BME280;48511;38.664;-9.202;2022-10-13T08:37:33;101425.56;;;18.68;82.31
62462;BME280;48511;38.664;-9.202;2022-10-13T08:39:37;101422.72;;;18.71;81.99
62462;BME280;48511;38.664;-9.202;2022-10-13T08:41:40;101431.00;;;18.79;79.97
62462;BME280;48511;38.664;-9.202;2022-10-13T08:44:05;101428.16;;;18.82;79.83
62462;BME280;48511;38.664;-9.202;2022-10-13T08:46:08;101435.09;;;18.98;79.73
62462;BME280;48511;38.664;-9.202;2022-10-13T08:48:20;101437.34;;;19.04;78.93
62462;BME280;48511;38.664;-9.202;2022-10-13T08:50:24;101431.47;;;19.13;78.70
62462;BME280;48511;38.664;-9.202;2022-10-13T08:52:28;101435.41;;;19.21;78.01
62462;BME280;48511;38.664;-9.202;2022-10-13T08:54:30;101439.25;;;19.29;77.82
62462;BME280;48511;38.664;-9.202;2022-10-13T08:56:33;101441.38;;;19.37;78.66
62462;BME280;48511;38.664;-9.202;2022-10-13T08:58:36;101449.63;;;19.45;77.53
62462;BME280;48511;38.664;-9.202;2022-10-13T09:00:38;101434.19;;;19.52;76.52
62462;BME280;48511;38.664;-9.202;2022-10-13T09:02:40;101445.63;;;19.65;76.45
62462;BME280;48511;38.664;-9.202;2022-10-13T09:04:45;101445.94;;;19.74;75.78
62462;BME280;48511;38.664;-9.202;2022-10-13T09:07:09;101446.91;;;19.73;75.78
62462;BME280;48511;38.664;-9.202;2022-10-13T09:09:13;101450.06;;;19.78;75.42
62462;BME280;48511;38.664;-9.202;2022-10-13T09:11:15;101453.50;;;19.93;75.24
62462;BME280;48511;38.664;-9.202;2022-10-13T09:13:17;101458.38;;;19.99;74.20
62462;BME280;48511;38.664;-9.202;2022-10-13T09:15:18;101461.56;;;20.04;73.94
62462;BME280;48511;38.664;-9.202;2022-10-13T09:17:23;101453.91;;;20.12;74.35
62462;BME280;48511;38.664;-9.202;2022-10-13T09:19:28;101452.03;;;20.14;73.51
62462;BME280;48511;38.664;-9.202;2022-10-13T09:21:33;101455.59;;;20.26;73.39
62462;BME280;48511;38.664;-9.202;2022-10-13T09:23:34;101462.28;;;20.32;74.03
62462;BME280;48511;38.664;-9.202;2022-10-13T09:25:40;101458.75;;;20.44;73.10
62462;BME280;48511;38.664;-9.202;2022-10-13T09:29:52;101458.91;;;20.67;73.93
62462;BME280;48511;38.664;-9.202;2022-10-13T09:32:07;101461.03;;;20.62;76.13
62462;BME280;48511;38.664;-9.202;2022-10-13T09:34:21;101462.50;;;20.66;76.69
62462;BME280;48511;38.664;-9.202;2022-10-13T09:36:24;101453.84;;;20.64;76.30
62462;BME280;48511;38.664;-9.202;2022-10-13T09:38:26;101460.09;;;20.63;77.30
62462;BME280;48511;38.664;-9.202;2022-10-13T09:40:27;101454.44;;;20.68;76.76
62462;BME280;48511;38.664;-9.202;2022-10-13T09:42:30;101458.63;;;20.72;77.50
62462;BME280;48511;38.664;-9.202;2022-10-13T09:44:34;101455.94;;;20.85;76.81
62462;BME280;48511;38.664;-9.202;2022-10-13T09:46:43;101458.66;;;20.96;76.77
62462;BME280;48511;38.664;-9.202;2022-10-13T09:48:51;101450.22;;;21.02;76.27
62462;BME280;48511;38.664;-9.202;2022-10-13T09:50:54;101454.94;;;21.10;76.12
62462;BME280;48511;38.664;-9.202;2022-10-13T09:53:24;101455.13;;;21.20;75.57
62462;BME280;48511;38.664;-9.202;2022-10-13T09:55:32;101454.91;;;21.23;75.91
62462;BME280;48511;38.664;-9.202;2022-10-13T09:57:42;101460.34;;;21.33;75.70
62462;BME280;48511;38.664;-9.202;2022-10-13T09:59:53;101464.59;;;21.35;75.55
62462;BME280;48511;38.664;-9.202;2022-10-13T10:02:01;101458.00;;;21.41;75.97
62462;BME280;48511;38.664;-9.202;2022-10-13T10:04:21;101464.47;;;21.37;75.50
62462;BME280;48511;38.664;-9.202;2022-10-13T10:06:23;101469.44;;;21.41;75.23
62462;BME280;48511;38.664;-9.202;2022-10-13T10:08:34;101469.50;;;21.28;75.81
62462;BME280;48511;38.664;-9.202;2022-10-13T10:10:39;101473.78;;;21.42;75.51
62462;BME280;48511;38.664;-9.202;2022-10-13T10:12:42;101481.16;;;21.50;75.07
62462;BME280;48511;38.664;-9.202;2022-10-13T10:14:45;101480.03;;;21.41;74.22
62462;BME280;48511;38.664;-9.202;2022-10-13T10:19:21;101490.84;;;21.03;76.48
62462;BME280;48511;38.664;-9.202;2022-10-13T10:25:59;101482.72;;;21.77;74.11
62462;BME280;48511;38.664;-9.202;2022-10-13T10:30:18;101493.72;;;21.95;71.94
62462;BME280;48511;38.664;-9.202;2022-10-13T10:37:18;101494.22;;;22.34;70.63
62462;BME280;48511;38.664;-9.202;2022-10-13T10:42:18;101498.00;;;22.43;69.40
62462;BME280;48511;38.664;-9.202;2022-10-13T10:44:31;101489.19;;;22.54;69.42
62462;BME280;48511;38.664;-9.202;2022-10-13T10:46:38;101498.34;;;22.61;68.52
62462;BME280;48511;38.664;-9.202;2022-10-13T10:48:42;101493.28;;;22.69;68.40
62462;BME280;48511;38.664;-9.202;2022-10-13T10:50:43;101497.56;;;22.82;68.04
62462;BME280;48511;38.664;-9.202;2022-10-13T10:52:58;101498.78;;;22.89;66.64
62462;BME280;48511;38.664;-9.202;2022-10-13T10:55:19;101498.28;;;22.95;66.64
62462;BME280;48511;38.664;-9.202;2022-10-13T10:59:46;101495.47;;;23.08;66.43
62462;BME280;48511;38.664;-9.202;2022-10-13T11:02:12;101493.78;;;23.18;66.26
62462;BME280;48511;38.664;-9.202;2022-10-13T11:04:39;101498.03;;;22.98;66.93
62462;BME280;48511;38.664;-9.202;2022-10-13T11:06:40;101492.19;;;22.72;67.21
62462;BME280;48511;38.664;-9.202;2022-10-13T11:08:46;101495.41;;;22.87;66.90
62462;BME280;48511;38.664;-9.202;2022-10-13T11:13:24;101483.34;;;23.26;66.65
62462;BME280;48511;38.664;-9.202;2022-10-13T11:15:44;101486.13;;;23.14;65.43
62462;BME280;48511;38.664;-9.202;2022-10-13T11:17:45;101481.78;;;23.24;65.35
62462;BME280;48511;38.664;-9.202;2022-10-13T11:19:47;101483.56;;;23.35;65.29
62462;BME280;48511;38.664;-9.202;2022-10-13T11:23:54;101485.72;;;23.62;64.45